PHRJV EHSE-EHSE
Flight info
| Callsign | PHRJV |
|---|---|
| Flight time | 1h 6m |
| Altitude | 15000 |
| Route | VFR |
| Aircraft | PC12/L-SDFGRWY/S |
Departure
| Time | 2026-04-13 17:43 |
|---|---|
| Airport | Breda International Airport (EHSE) |
Arrival
| Time | 2026-04-13 18:50 |
|---|---|
| Airport | Breda International Airport (EHSE) |
| Time | Latitude | Longitude | Altitude | Speed | Heading |
|---|---|---|---|---|---|
| 2026-04-13 17:28 | 51.55450 | 4.55430 | 39 ft | 0 kts | 337° |
| 2026-04-13 17:38 | 51.55474 | 4.55427 | 39 ft | 8 kts | 44° |
| 2026-04-13 17:39 | 51.55487 | 4.55464 | 39 ft | 0 kts | 64° |
| 2026-04-13 17:39 | 51.55491 | 4.55478 | 38 ft | 7 kts | 65° |
| 2026-04-13 17:40 | 51.55509 | 4.55546 | 37 ft | 11 kts | 67° |
| 2026-04-13 17:40 | 51.55552 | 4.55697 | 37 ft | 13 kts | 65° |
| 2026-04-13 17:40 | 51.55579 | 4.55800 | 40 ft | 6 kts | 66° |
| 2026-04-13 17:40 | 51.55587 | 4.55825 | 41 ft | 0 kts | 50° |
| 2026-04-13 17:41 | 51.55590 | 4.55830 | 41 ft | 6 kts | 49° |
| 2026-04-13 17:41 | 51.55640 | 4.55855 | 40 ft | 7 kts | 294° |
| 2026-04-13 17:41 | 51.55640 | 4.55844 | 40 ft | 0 kts | 244° |
| 2026-04-13 17:42 | 51.55626 | 4.55793 | 40 ft | 28 kts | 248° |
| 2026-04-13 17:42 | 51.55447 | 4.55137 | 43 ft | 94 kts | 248° |
| 2026-04-13 17:43 | 51.55067 | 4.54124 | 300 ft | 119 kts | 239° |
| 2026-04-13 17:43 | 51.54671 | 4.52831 | 605 ft | 139 kts | 255° |
| 2026-04-13 17:43 | 51.54125 | 4.51538 | 848 ft | 155 kts | 197° |
| 2026-04-13 17:43 | 51.53352 | 4.52292 | 905 ft | 143 kts | 97° |
| 2026-04-13 17:44 | 51.53674 | 4.53735 | 878 ft | 133 kts | 56° |
| 2026-04-13 17:44 | 51.54179 | 4.54896 | 744 ft | 124 kts | 52° |
| 2026-04-13 17:44 | 51.54628 | 4.55980 | 628 ft | 112 kts | 56° |
| 2026-04-13 17:44 | 51.55013 | 4.57044 | 608 ft | 104 kts | 59° |
| 2026-04-13 17:45 | 51.55350 | 4.58027 | 670 ft | 101 kts | 56° |
| 2026-04-13 17:45 | 51.55962 | 4.58240 | 544 ft | 109 kts | 327° |
| 2026-04-13 17:45 | 51.55987 | 4.57129 | 335 ft | 103 kts | 246° |
| 2026-04-13 17:45 | 51.55715 | 4.56124 | 89 ft | 98 kts | 248° |
| 2026-04-13 17:46 | 51.55458 | 4.55192 | 46 ft | 90 kts | 248° |
| 2026-04-13 17:46 | 51.55118 | 4.54259 | 306 ft | 104 kts | 231° |
| 2026-04-13 17:46 | 51.54828 | 4.53121 | 570 ft | 113 kts | 252° |
| 2026-04-13 17:46 | 51.54534 | 4.51960 | 746 ft | 116 kts | 231° |
| 2026-04-13 17:47 | 51.53774 | 4.51865 | 813 ft | 121 kts | 139° |
| 2026-04-13 17:47 | 51.53635 | 4.53068 | 876 ft | 118 kts | 65° |
| 2026-04-13 17:47 | 51.54039 | 4.54229 | 959 ft | 121 kts | 58° |
| 2026-04-13 17:47 | 51.54452 | 4.55432 | 960 ft | 123 kts | 58° |
| 2026-04-13 17:48 | 51.54859 | 4.56639 | 903 ft | 121 kts | 60° |
| 2026-04-13 17:48 | 51.55237 | 4.57801 | 833 ft | 113 kts | 59° |
| 2026-04-13 17:48 | 51.55820 | 4.58439 | 642 ft | 108 kts | 346° |
| 2026-04-13 17:48 | 51.56100 | 4.57477 | 472 ft | 116 kts | 250° |
| 2026-04-13 17:49 | 51.55786 | 4.56372 | 129 ft | 102 kts | 249° |
| 2026-04-13 17:49 | 51.55509 | 4.55378 | 39 ft | 87 kts | 245° |
| 2026-04-13 17:49 | 51.55212 | 4.54433 | 218 ft | 100 kts | 232° |
| 2026-04-13 17:49 | 51.54908 | 4.53383 | 553 ft | 108 kts | 261° |
| 2026-04-13 17:50 | 51.54739 | 4.52160 | 855 ft | 123 kts | 250° |
| 2026-04-13 17:50 | 51.54072 | 4.51324 | 896 ft | 135 kts | 175° |
| 2026-04-13 17:50 | 51.53521 | 4.52334 | 873 ft | 131 kts | 81° |
| 2026-04-13 17:50 | 51.53882 | 4.53648 | 861 ft | 130 kts | 59° |
| 2026-04-13 17:51 | 51.54323 | 4.54903 | 875 ft | 124 kts | 58° |
| 2026-04-13 17:51 | 51.54719 | 4.56075 | 806 ft | 116 kts | 59° |
| 2026-04-13 17:51 | 51.55083 | 4.57169 | 748 ft | 108 kts | 59° |
| 2026-04-13 17:51 | 51.55467 | 4.58164 | 695 ft | 102 kts | 42° |
| 2026-04-13 17:52 | 51.56087 | 4.58013 | 497 ft | 113 kts | 300° |
| 2026-04-13 17:52 | 51.55916 | 4.56870 | 267 ft | 99 kts | 247° |
| 2026-04-13 17:52 | 51.55656 | 4.55909 | 50 ft | 92 kts | 249° |
| 2026-04-13 17:52 | 51.55426 | 4.55066 | 43 ft | 84 kts | 248° |
| 2026-04-13 17:53 | 51.55235 | 4.54462 | 214 ft | 92 kts | 231° |
| 2026-04-13 17:53 | 51.54831 | 4.53094 | 583 ft | 114 kts | 251° |
| 2026-04-13 17:53 | 51.54465 | 4.51856 | 824 ft | 134 kts | 227° |
| 2026-04-13 17:53 | 51.53603 | 4.51835 | 928 ft | 142 kts | 132° |
| 2026-04-13 17:54 | 51.53587 | 4.53313 | 970 ft | 141 kts | 57° |
| 2026-04-13 17:54 | 51.54088 | 4.54565 | 921 ft | 131 kts | 54° |
| 2026-04-13 17:54 | 51.54578 | 4.55773 | 737 ft | 127 kts | 54° |
| 2026-04-13 17:54 | 51.55029 | 4.56880 | 661 ft | 108 kts | 54° |
| 2026-04-13 17:55 | 51.55462 | 4.57827 | 620 ft | 107 kts | 30° |
| 2026-04-13 17:55 | 51.56049 | 4.57460 | 532 ft | 114 kts | 278° |
| 2026-04-13 17:55 | 51.55763 | 4.56309 | 151 ft | 104 kts | 249° |
| 2026-04-13 17:55 | 51.55511 | 4.55385 | 38 ft | 77 kts | 247° |
| 2026-04-13 17:56 | 51.55220 | 4.54467 | 185 ft | 103 kts | 224° |
| 2026-04-13 17:56 | 51.54889 | 4.53354 | 480 ft | 121 kts | 252° |
| 2026-04-13 17:56 | 51.54605 | 4.51988 | 968 ft | 134 kts | 254° |
| 2026-04-13 17:56 | 51.54636 | 4.50440 | 1176 ft | 151 kts | 305° |
| 2026-04-13 17:57 | 51.55493 | 4.49415 | 1178 ft | 159 kts | 331° |
| 2026-04-13 17:57 | 51.56473 | 4.48562 | 1233 ft | 160 kts | 333° |
| 2026-04-13 17:57 | 51.57519 | 4.47808 | 1307 ft | 167 kts | 347° |
| 2026-04-13 17:57 | 51.58664 | 4.47423 | 1424 ft | 170 kts | 348° |
| 2026-04-13 17:58 | 51.59816 | 4.47042 | 1678 ft | 160 kts | 349° |
| 2026-04-13 17:58 | 51.60817 | 4.46383 | 1941 ft | 163 kts | 316° |
| 2026-04-13 17:58 | 51.61593 | 4.44956 | 1988 ft | 174 kts | 311° |
| 2026-04-13 17:58 | 51.62382 | 4.43440 | 2008 ft | 178 kts | 312° |
| 2026-04-13 17:59 | 51.63196 | 4.41925 | 2007 ft | 179 kts | 312° |
| 2026-04-13 17:59 | 51.64015 | 4.40405 | 2006 ft | 181 kts | 312° |
| 2026-04-13 17:59 | 51.64844 | 4.38875 | 2005 ft | 181 kts | 312° |
| 2026-04-13 17:59 | 51.65676 | 4.37348 | 2000 ft | 181 kts | 312° |
| 2026-04-13 18:00 | 51.66502 | 4.35830 | 1999 ft | 180 kts | 313° |
| 2026-04-13 18:00 | 51.67316 | 4.34301 | 1998 ft | 180 kts | 310° |
| 2026-04-13 18:00 | 51.67922 | 4.32565 | 2075 ft | 178 kts | 299° |
| 2026-04-13 18:00 | 51.68497 | 4.30779 | 2077 ft | 181 kts | 300° |
| 2026-04-13 18:01 | 51.69075 | 4.28977 | 2045 ft | 181 kts | 298° |
| 2026-04-13 18:01 | 51.69643 | 4.27157 | 2023 ft | 182 kts | 297° |
| 2026-04-13 18:01 | 51.70165 | 4.25341 | 2091 ft | 180 kts | 295° |
| 2026-04-13 18:01 | 51.70670 | 4.23453 | 2516 ft | 185 kts | 295° |
| 2026-04-13 18:02 | 51.71192 | 4.21534 | 2924 ft | 188 kts | 300° |
| 2026-04-13 18:02 | 51.72224 | 4.20352 | 3194 ft | 190 kts | 351° |
| 2026-04-13 18:02 | 51.73406 | 4.21082 | 2948 ft | 190 kts | 50° |
| 2026-04-13 18:02 | 51.73714 | 4.23073 | 2951 ft | 188 kts | 101° |
| 2026-04-13 18:03 | 51.72938 | 4.24706 | 2932 ft | 191 kts | 152° |
| 2026-04-13 18:03 | 51.71633 | 4.25062 | 2873 ft | 193 kts | 176° |
| 2026-04-13 18:03 | 51.70294 | 4.25179 | 2877 ft | 190 kts | 176° |
| 2026-04-13 18:03 | 51.69205 | 4.26185 | 3042 ft | 191 kts | 111° |
| 2026-04-13 18:04 | 51.69527 | 4.28067 | 3040 ft | 185 kts | 34° |
| 2026-04-13 18:04 | 51.70752 | 4.28040 | 3028 ft | 189 kts | 330° |
| 2026-04-13 18:04 | 51.71514 | 4.26319 | 2969 ft | 192 kts | 295° |
| 2026-04-13 18:04 | 51.72032 | 4.24397 | 3184 ft | 184 kts | 296° |
| 2026-04-13 18:05 | 51.72529 | 4.22473 | 3264 ft | 188 kts | 292° |
| 2026-04-13 18:05 | 51.72970 | 4.20489 | 3674 ft | 185 kts | 291° |
| 2026-04-13 18:05 | 51.73410 | 4.18514 | 4235 ft | 190 kts | 291° |
| 2026-04-13 18:05 | 51.73546 | 4.16466 | 4768 ft | 195 kts | 246° |
| 2026-04-13 18:06 | 51.73122 | 4.14417 | 5080 ft | 201 kts | 279° |
| 2026-04-13 18:06 | 51.73881 | 4.12535 | 5093 ft | 200 kts | 317° |
| 2026-04-13 18:06 | 51.74782 | 4.10987 | 5085 ft | 175 kts | 294° |
| 2026-04-13 18:06 | 51.74702 | 4.09266 | 4962 ft | 162 kts | 252° |
| 2026-04-13 18:07 | 51.74375 | 4.07665 | 5101 ft | 127 kts | 267° |
| 2026-04-13 18:07 | 51.74730 | 4.06604 | 5057 ft | 108 kts | 335° |
| 2026-04-13 18:07 | 51.75398 | 4.06807 | 4975 ft | 105 kts | 51° |
| 2026-04-13 18:07 | 51.75435 | 4.07848 | 4913 ft | 92 kts | 107° |
| 2026-04-13 18:08 | 51.75208 | 4.08806 | 4932 ft | 90 kts | 108° |
| 2026-04-13 18:08 | 51.74996 | 4.09716 | 4979 ft | 85 kts | 107° |
| 2026-04-13 18:08 | 51.74786 | 4.10610 | 5090 ft | 84 kts | 106° |
| 2026-04-13 18:08 | 51.74751 | 4.11484 | 5203 ft | 80 kts | 49° |
| 2026-04-13 18:09 | 51.75247 | 4.11671 | 5304 ft | 81 kts | 320° |
| 2026-04-13 18:09 | 51.75453 | 4.10843 | 5454 ft | 81 kts | 290° |
| 2026-04-13 18:09 | 51.75626 | 4.09955 | 5599 ft | 83 kts | 288° |
| 2026-04-13 18:09 | 51.75733 | 4.09021 | 5732 ft | 87 kts | 281° |
| 2026-04-13 18:10 | 51.76037 | 4.08160 | 5626 ft | 95 kts | 327° |
| 2026-04-13 18:10 | 51.76679 | 4.08092 | 5530 ft | 101 kts | 22° |
| 2026-04-13 18:10 | 51.77130 | 4.08952 | 5380 ft | 109 kts | 73° |
| 2026-04-13 18:10 | 51.77023 | 4.10171 | 5208 ft | 110 kts | 111° |
| 2026-04-13 18:11 | 51.76689 | 4.11229 | 5013 ft | 104 kts | 117° |
| 2026-04-13 18:11 | 51.76327 | 4.12255 | 4754 ft | 112 kts | 118° |
| 2026-04-13 18:11 | 51.75898 | 4.13438 | 4486 ft | 129 kts | 119° |
| 2026-04-13 18:11 | 51.75192 | 4.14401 | 3943 ft | 145 kts | 167° |
| 2026-04-13 18:12 | 51.74257 | 4.13983 | 3488 ft | 144 kts | 225° |
| 2026-04-13 18:12 | 51.73993 | 4.12513 | 2878 ft | 141 kts | 283° |
| 2026-04-13 18:12 | 51.74387 | 4.11070 | 2448 ft | 148 kts | 299° |
| 2026-04-13 18:12 | 51.75148 | 4.10329 | 2952 ft | 151 kts | 9° |
| 2026-04-13 18:13 | 51.76219 | 4.10662 | 2653 ft | 164 kts | 359° |
| 2026-04-13 18:13 | 51.77247 | 4.09861 | 2301 ft | 168 kts | 316° |
| 2026-04-13 18:13 | 51.77946 | 4.08355 | 2003 ft | 168 kts | 307° |
| 2026-04-13 18:13 | 51.78628 | 4.06826 | 1710 ft | 167 kts | 308° |
| 2026-04-13 18:14 | 51.79329 | 4.05331 | 1392 ft | 165 kts | 309° |
| 2026-04-13 18:14 | 51.80108 | 4.04046 | 1241 ft | 157 kts | 330° |
| 2026-04-13 18:14 | 51.81059 | 4.03188 | 1129 ft | 155 kts | 333° |
| 2026-04-13 18:14 | 51.82035 | 4.02513 | 1099 ft | 152 kts | 354° |
| 2026-04-13 18:15 | 51.82978 | 4.03063 | 996 ft | 154 kts | 47° |
| 2026-04-13 18:15 | 51.83164 | 4.04737 | 1005 ft | 167 kts | 107° |
| 2026-04-13 18:15 | 51.82388 | 4.06144 | 1028 ft | 173 kts | 141° |
| 2026-04-13 18:15 | 51.81426 | 4.07335 | 1063 ft | 175 kts | 143° |
| 2026-04-13 18:16 | 51.80575 | 4.08735 | 992 ft | 175 kts | 124° |
| 2026-04-13 18:16 | 51.79861 | 4.10305 | 1008 ft | 171 kts | 124° |
| 2026-04-13 18:16 | 51.79181 | 4.11865 | 1072 ft | 169 kts | 125° |
| 2026-04-13 18:16 | 51.78216 | 4.12908 | 1086 ft | 174 kts | 169° |
| 2026-04-13 18:17 | 51.77036 | 4.12613 | 1126 ft | 174 kts | 196° |
| 2026-04-13 18:17 | 51.75849 | 4.12121 | 1001 ft | 176 kts | 192° |
| 2026-04-13 18:17 | 51.74673 | 4.11732 | 1094 ft | 171 kts | 191° |
| 2026-04-13 18:17 | 51.73516 | 4.11342 | 1265 ft | 165 kts | 194° |
| 2026-04-13 18:18 | 51.72345 | 4.10939 | 1135 ft | 178 kts | 188° |
| 2026-04-13 18:18 | 51.71110 | 4.10903 | 1071 ft | 177 kts | 179° |
| 2026-04-13 18:18 | 51.69877 | 4.10985 | 1049 ft | 178 kts | 177° |
| 2026-04-13 18:18 | 51.68633 | 4.11140 | 970 ft | 179 kts | 174° |
| 2026-04-13 18:19 | 51.67552 | 4.11981 | 917 ft | 175 kts | 129° |
| 2026-04-13 18:19 | 51.67215 | 4.13790 | 883 ft | 170 kts | 83° |
| 2026-04-13 18:19 | 51.67291 | 4.15036 | 916 ft | 169 kts | 81° |
| 2026-04-13 18:19 | 51.67065 | 4.17520 | 950 ft | 174 kts | 115° |
| 2026-04-13 18:20 | 51.66660 | 4.18639 | 942 ft | 175 kts | 119° |
| 2026-04-13 18:20 | 51.66028 | 4.20278 | 1014 ft | 171 kts | 129° |
| 2026-04-13 18:20 | 51.64951 | 4.20651 | 1103 ft | 170 kts | 208° |
| 2026-04-13 18:20 | 51.64364 | 4.19136 | 1106 ft | 166 kts | 270° |
| 2026-04-13 18:21 | 51.64460 | 4.17281 | 1051 ft | 168 kts | 281° |
| 2026-04-13 18:21 | 51.64731 | 4.15498 | 1129 ft | 163 kts | 288° |
| 2026-04-13 18:21 | 51.65007 | 4.13719 | 1163 ft | 164 kts | 277° |
| 2026-04-13 18:21 | 51.64754 | 4.11930 | 1208 ft | 167 kts | 244° |
| 2026-04-13 18:22 | 51.64200 | 4.10283 | 1266 ft | 168 kts | 243° |
| 2026-04-13 18:22 | 51.63625 | 4.08641 | 1330 ft | 168 kts | 242° |
| 2026-04-13 18:22 | 51.62998 | 4.07047 | 1379 ft | 170 kts | 238° |
| 2026-04-13 18:22 | 51.62302 | 4.05513 | 1389 ft | 171 kts | 235° |
| 2026-04-13 18:23 | 51.61566 | 4.04005 | 1433 ft | 172 kts | 234° |
| 2026-04-13 18:23 | 51.60957 | 4.02353 | 1412 ft | 172 kts | 247° |
| 2026-04-13 18:23 | 51.60519 | 4.00557 | 1380 ft | 172 kts | 255° |
| 2026-04-13 18:23 | 51.60296 | 3.98685 | 1345 ft | 171 kts | 270° |
| 2026-04-13 18:24 | 51.60413 | 3.96804 | 1305 ft | 169 kts | 282° |
| 2026-04-13 18:24 | 51.60628 | 3.94941 | 1276 ft | 169 kts | 283° |
| 2026-04-13 18:24 | 51.60527 | 3.93116 | 1283 ft | 169 kts | 238° |
| 2026-04-13 18:24 | 51.59538 | 3.92212 | 1409 ft | 171 kts | 182° |
| 2026-04-13 18:25 | 51.58442 | 3.92865 | 1376 ft | 175 kts | 133° |
| 2026-04-13 18:25 | 51.58028 | 3.94617 | 1377 ft | 170 kts | 85° |
| 2026-04-13 18:25 | 51.58576 | 3.96238 | 1260 ft | 169 kts | 36° |
| 2026-04-13 18:25 | 51.59661 | 3.96769 | 1154 ft | 167 kts | 352° |
| 2026-04-13 18:26 | 51.60551 | 3.95680 | 1098 ft | 167 kts | 298° |
| 2026-04-13 18:26 | 51.60566 | 3.93823 | 996 ft | 173 kts | 249° |
| 2026-04-13 18:26 | 51.59708 | 3.92538 | 1016 ft | 175 kts | 201° |
| 2026-04-13 18:26 | 51.58509 | 3.92612 | 974 ft | 178 kts | 154° |
| 2026-04-13 18:27 | 51.57696 | 3.94010 | 987 ft | 173 kts | 105° |
| 2026-04-13 18:27 | 51.57822 | 3.95861 | 874 ft | 170 kts | 56° |
| 2026-04-13 18:27 | 51.58744 | 3.96763 | 1030 ft | 156 kts | 0° |
| 2026-04-13 18:27 | 51.59635 | 3.95955 | 1078 ft | 149 kts | 302° |
| 2026-04-13 18:28 | 51.59766 | 3.94662 | 960 ft | 152 kts | 262° |
| 2026-04-13 18:28 | 51.59622 | 3.93025 | 1081 ft | 149 kts | 275° |
| 2026-04-13 18:28 | 51.59822 | 3.91351 | 1108 ft | 158 kts | 287° |
| 2026-04-13 18:28 | 51.60100 | 3.89605 | 1064 ft | 163 kts | 286° |
| 2026-04-13 18:29 | 51.60386 | 3.87852 | 1037 ft | 162 kts | 287° |
| 2026-04-13 18:29 | 51.60671 | 3.86108 | 1038 ft | 160 kts | 286° |
| 2026-04-13 18:29 | 51.60931 | 3.84549 | 991 ft | 135 kts | 288° |
| 2026-04-13 18:29 | 51.61183 | 3.83101 | 968 ft | 138 kts | 289° |
| 2026-04-13 18:30 | 51.61435 | 3.81673 | 875 ft | 133 kts | 290° |
| 2026-04-13 18:30 | 51.61696 | 3.80245 | 867 ft | 127 kts | 288° |
| 2026-04-13 18:30 | 51.61929 | 3.78981 | 823 ft | 123 kts | 291° |
| 2026-04-13 18:30 | 51.62202 | 3.77580 | 893 ft | 142 kts | 287° |
| 2026-04-13 18:31 | 51.62349 | 3.75908 | 843 ft | 155 kts | 279° |
| 2026-04-13 18:31 | 51.62471 | 3.74205 | 935 ft | 149 kts | 280° |
| 2026-04-13 18:31 | 51.62583 | 3.72565 | 999 ft | 152 kts | 280° |
| 2026-04-13 18:31 | 51.62708 | 3.70863 | 1032 ft | 153 kts | 280° |
| 2026-04-13 18:32 | 51.62832 | 3.69143 | 976 ft | 156 kts | 279° |
| 2026-04-13 18:32 | 51.62701 | 3.67406 | 944 ft | 161 kts | 250° |
| 2026-04-13 18:32 | 51.61924 | 3.66111 | 854 ft | 169 kts | 208° |
| 2026-04-13 18:32 | 51.60784 | 3.65627 | 776 ft | 168 kts | 190° |
| 2026-04-13 18:33 | 51.59639 | 3.65335 | 740 ft | 166 kts | 190° |
| 2026-04-13 18:33 | 51.58503 | 3.65014 | 674 ft | 165 kts | 192° |
| 2026-04-13 18:33 | 51.57358 | 3.64774 | 633 ft | 167 kts | 179° |
| 2026-04-13 18:34 | 51.55435 | 3.66593 | 682 ft | 163 kts | 136° |
| 2026-04-13 18:34 | 51.54594 | 3.67749 | 733 ft | 163 kts | 144° |
| 2026-04-13 18:34 | 51.53605 | 3.68762 | 681 ft | 168 kts | 149° |
| 2026-04-13 18:34 | 51.52571 | 3.69645 | 609 ft | 170 kts | 152° |
| 2026-04-13 18:35 | 51.51539 | 3.70580 | 394 ft | 173 kts | 136° |
| 2026-04-13 18:35 | 51.51205 | 3.72319 | 107 ft | 169 kts | 84° |
| 2026-04-13 18:35 | 51.51251 | 3.74157 | 74 ft | 162 kts | 85° |
| 2026-04-13 18:35 | 51.51332 | 3.75929 | 354 ft | 155 kts | 68° |
| 2026-04-13 18:36 | 51.52091 | 3.76985 | 598 ft | 150 kts | 15° |
| 2026-04-13 18:36 | 51.53106 | 3.77415 | 841 ft | 151 kts | 13° |
| 2026-04-13 18:36 | 51.54015 | 3.78223 | 1058 ft | 158 kts | 47° |
| 2026-04-13 18:36 | 51.54415 | 3.79937 | 1072 ft | 171 kts | 81° |
| 2026-04-13 18:37 | 51.54443 | 3.81207 | 1169 ft | 172 kts | 86° |
| 2026-04-13 18:37 | 51.54441 | 3.83793 | 1270 ft | 174 kts | 88° |
| 2026-04-13 18:37 | 51.54435 | 3.85737 | 1309 ft | 176 kts | 88° |
| 2026-04-13 18:37 | 51.54426 | 3.87707 | 1315 ft | 175 kts | 88° |
| 2026-04-13 18:38 | 51.54429 | 3.89658 | 1312 ft | 175 kts | 88° |
| 2026-04-13 18:38 | 51.54362 | 3.91617 | 1292 ft | 175 kts | 95° |
| 2026-04-13 18:38 | 51.54075 | 3.93486 | 1331 ft | 174 kts | 108° |
| 2026-04-13 18:38 | 51.53568 | 3.95283 | 1359 ft | 176 kts | 115° |
| 2026-04-13 18:39 | 51.52998 | 3.96996 | 1409 ft | 174 kts | 117° |
| 2026-04-13 18:39 | 51.52399 | 3.98708 | 1533 ft | 172 kts | 117° |
| 2026-04-13 18:39 | 51.51799 | 4.00359 | 1619 ft | 174 kts | 119° |
| 2026-04-13 18:39 | 51.51098 | 4.01940 | 1707 ft | 175 kts | 130° |
| 2026-04-13 18:40 | 51.50200 | 4.03296 | 1711 ft | 179 kts | 139° |
| 2026-04-13 18:40 | 51.49235 | 4.04561 | 1770 ft | 179 kts | 140° |
| 2026-04-13 18:40 | 51.48255 | 4.05812 | 1761 ft | 181 kts | 141° |
| 2026-04-13 18:40 | 51.47283 | 4.07127 | 1673 ft | 184 kts | 137° |
| 2026-04-13 18:41 | 51.46343 | 4.08528 | 1555 ft | 185 kts | 136° |
| 2026-04-13 18:41 | 51.45403 | 4.09939 | 1406 ft | 187 kts | 136° |
| 2026-04-13 18:41 | 51.44462 | 4.11367 | 1313 ft | 184 kts | 136° |
| 2026-04-13 18:41 | 51.43594 | 4.12840 | 1352 ft | 179 kts | 122° |
| 2026-04-13 18:42 | 51.43180 | 4.14698 | 1436 ft | 176 kts | 98° |
| 2026-04-13 18:42 | 51.42958 | 4.16625 | 1517 ft | 176 kts | 98° |
| 2026-04-13 18:42 | 51.42744 | 4.18576 | 1491 ft | 179 kts | 98° |
| 2026-04-13 18:42 | 51.42542 | 4.20519 | 1489 ft | 179 kts | 97° |
| 2026-04-13 18:43 | 51.42385 | 4.22513 | 1427 ft | 180 kts | 91° |
| 2026-04-13 18:43 | 51.42586 | 4.24467 | 1290 ft | 179 kts | 66° |
| 2026-04-13 18:43 | 51.43015 | 4.26374 | 975 ft | 184 kts | 70° |
| 2026-04-13 18:43 | 51.43457 | 4.28305 | 683 ft | 184 kts | 67° |
| 2026-04-13 18:44 | 51.43927 | 4.30194 | 453 ft | 182 kts | 65° |
| 2026-04-13 18:44 | 51.44382 | 4.32086 | 239 ft | 181 kts | 67° |
| 2026-04-13 18:44 | 51.44826 | 4.33964 | 102 ft | 178 kts | 67° |
| 2026-04-13 18:44 | 51.45258 | 4.35796 | 103 ft | 174 kts | 68° |
| 2026-04-13 18:45 | 51.45695 | 4.37627 | 471 ft | 177 kts | 66° |
| 2026-04-13 18:45 | 51.46146 | 4.39469 | 743 ft | 186 kts | 66° |
| 2026-04-13 18:45 | 51.46616 | 4.41425 | 999 ft | 190 kts | 66° |
| 2026-04-13 18:45 | 51.47149 | 4.43411 | 1078 ft | 193 kts | 64° |
| 2026-04-13 18:46 | 51.47622 | 4.45142 | 1064 ft | 163 kts | 63° |
| 2026-04-13 18:46 | 51.48079 | 4.46780 | 1076 ft | 159 kts | 62° |
| 2026-04-13 18:46 | 51.48550 | 4.48385 | 1009 ft | 160 kts | 60° |
| 2026-04-13 18:46 | 51.49044 | 4.49979 | 962 ft | 158 kts | 60° |
| 2026-04-13 18:47 | 51.49542 | 4.51538 | 965 ft | 156 kts | 60° |
| 2026-04-13 18:47 | 51.50057 | 4.53073 | 926 ft | 157 kts | 58° |
| 2026-04-13 18:47 | 51.50721 | 4.54458 | 848 ft | 155 kts | 35° |
| 2026-04-13 18:47 | 51.51729 | 4.54821 | 770 ft | 153 kts | 348° |
| 2026-04-13 18:48 | 51.52723 | 4.54527 | 708 ft | 136 kts | 352° |
| 2026-04-13 18:48 | 51.53603 | 4.54373 | 640 ft | 120 kts | 360° |
| 2026-04-13 18:48 | 51.54276 | 4.54976 | 598 ft | 116 kts | 57° |
| 2026-04-13 18:48 | 51.54669 | 4.56108 | 559 ft | 114 kts | 58° |
| 2026-04-13 18:49 | 51.55067 | 4.57174 | 566 ft | 108 kts | 56° |
| 2026-04-13 18:49 | 51.55532 | 4.58086 | 526 ft | 108 kts | 19° |
| 2026-04-13 18:49 | 51.56028 | 4.57462 | 374 ft | 107 kts | 276° |
| 2026-04-13 18:49 | 51.55789 | 4.56392 | 112 ft | 98 kts | 248° |
| 2026-04-13 18:50 | 51.55530 | 4.55457 | 32 ft | 75 kts | 246° |
| 2026-04-13 18:50 | 51.55379 | 4.54895 | 34 ft | 22 kts | 246° |
| 2026-04-13 18:50 | 51.55336 | 4.54812 | 34 ft | 7 kts | 158° |
| 2026-04-13 18:50 | 51.55328 | 4.54889 | 34 ft | 12 kts | 64° |
| 2026-04-13 18:51 | 51.55358 | 4.54989 | 35 ft | 9 kts | 68° |
| 2026-04-13 18:51 | 51.55399 | 4.55138 | 36 ft | 16 kts | 64° |
| 2026-04-13 18:51 | 51.55431 | 4.55256 | 34 ft | 11 kts | 68° |
| 2026-04-13 18:51 | 51.55458 | 4.55358 | 33 ft | 12 kts | 65° |
| 2026-04-13 18:52 | 51.55461 | 4.55422 | 33 ft | 4 kts | 160° |
| 2026-04-13 18:52 | 51.55449 | 4.55430 | 32 ft | 0 kts | 158° |